createdAt,value
2022-10-08T00:00:24.238Z,7.18
2022-10-08T00:05:28.013Z,8.77
2022-10-08T00:10:36.211Z,5.28
2022-10-08T00:15:40.966Z,6.78
2022-10-08T00:20:45.395Z,9.77
2022-10-08T00:25:50.446Z,4.75
2022-10-08T00:30:54.138Z,10.63
2022-10-08T00:36:01.544Z,12.00
2022-10-08T00:41:08.539Z,9.18
2022-10-08T00:51:24.080Z,5.43
2022-10-08T00:56:31.459Z,6.35
2022-10-08T01:01:36.036Z,6.57
2022-10-08T01:06:48.566Z,7.95
2022-10-08T01:11:59.225Z,5.93
2022-10-08T01:17:10.775Z,8.07
2022-10-08T01:22:30.644Z,9.52
2022-10-08T01:27:39.456Z,7.97
2022-10-08T01:32:48.713Z,8.48
2022-10-08T01:37:56.020Z,8.77
2022-10-08T01:48:19.068Z,5.25
2022-10-08T01:53:29.599Z,3.85
2022-10-08T01:58:42.936Z,2.92
2022-10-08T02:04:00.999Z,3.38
2022-10-08T02:09:05.934Z,5.90
2022-10-08T02:14:11.942Z,4.30
2022-10-08T02:19:24.124Z,2.35
2022-10-08T02:24:34.698Z,2.80
2022-10-08T02:29:45.727Z,6.07
2022-10-08T02:34:55.813Z,2.08
2022-10-08T02:40:03.053Z,1.38
2022-10-08T02:45:12.894Z,1.95
2022-10-08T02:50:20.889Z,1.17
2022-10-08T02:55:34.197Z,2.58
2022-10-08T03:00:44.342Z,2.35
2022-10-08T03:05:52.694Z,2.55
2022-10-08T03:10:57.073Z,4.70
2022-10-08T03:16:02.379Z,1.50
2022-10-08T03:21:08.994Z,2.67
2022-10-08T03:26:12.731Z,6.30
2022-10-08T03:31:17.946Z,3.03
2022-10-08T03:36:25.682Z,4.28
2022-10-08T03:41:31.388Z,4.72
2022-10-08T03:46:36.821Z,3.53
2022-10-08T03:51:40.556Z,5.47
2022-10-08T03:56:44.276Z,4.43
2022-10-08T04:01:49.368Z,5.07
2022-10-08T04:06:53.259Z,8.10
2022-10-08T04:11:57.044Z,11.48
2022-10-08T04:17:04.383Z,13.00
2022-10-08T04:22:08.244Z,15.55
2022-10-08T04:27:12.051Z,17.08
2022-10-08T04:32:17.341Z,18.73
2022-10-08T04:37:22.775Z,16.95
2022-10-08T04:42:26.644Z,22.15
2022-10-08T04:47:31.751Z,26.08
2022-10-08T04:52:35.481Z,22.30
2022-10-08T04:57:39.205Z,26.45
2022-10-08T05:02:44.594Z,27.92
2022-10-08T05:07:48.602Z,25.40
2022-10-08T05:12:52.420Z,22.55
2022-10-08T05:17:57.634Z,28.02
2022-10-08T05:23:04.120Z,25.08
2022-10-08T05:28:13.084Z,26.50
2022-10-08T05:33:18.450Z,18.25
2022-10-08T05:38:22.148Z,13.77
2022-10-08T05:43:25.868Z,17.10
2022-10-08T05:48:31.108Z,19.38
2022-10-08T05:53:36.906Z,19.25
2022-10-08T05:58:41.847Z,21.90
2022-10-08T06:03:49.730Z,18.75
2022-10-08T06:08:58.776Z,18.50
2022-10-08T06:14:03.815Z,14.57
2022-10-08T06:19:09.748Z,15.70
2022-10-08T06:24:14.083Z,16.27
2022-10-08T06:29:19.296Z,14.23
2022-10-08T06:34:24.449Z,11.13
2022-10-08T06:39:28.341Z,11.02
2022-10-08T06:44:32.011Z,10.25
2022-10-08T06:49:37.254Z,13.60
2022-10-08T06:54:41.053Z,12.02
2022-10-08T06:59:44.867Z,10.75
2022-10-08T07:04:49.989Z,11.73
2022-10-08T07:09:53.830Z,12.57
2022-10-08T07:14:57.682Z,11.18
2022-10-08T07:20:02.729Z,12.05
2022-10-08T07:25:07.106Z,11.55
2022-10-08T07:30:14.914Z,8.85
2022-10-08T07:35:23.480Z,14.90
2022-10-08T07:40:27.487Z,6.63
2022-10-08T07:45:31.568Z,6.00
2022-10-08T07:50:36.856Z,8.52
2022-10-08T07:55:40.818Z,6.47
2022-10-08T08:00:44.739Z,3.97
2022-10-08T08:05:50.087Z,5.90
2022-10-08T08:10:58.269Z,6.18
2022-10-08T08:16:06.582Z,6.97
2022-10-08T08:21:14.184Z,5.53
2022-10-08T08:26:20.754Z,7.55
2022-10-08T08:31:26.446Z,4.25
2022-10-08T08:36:33.157Z,5.22
2022-10-08T08:41:54.482Z,10.80
2022-10-08T08:47:01.206Z,6.55
2022-10-08T08:52:07.736Z,5.05
2022-10-08T08:57:31.798Z,3.80
2022-10-08T09:02:45.798Z,5.68
2022-10-08T09:07:56.767Z,4.00
2022-10-08T09:13:04.644Z,3.50
2022-10-08T09:18:11.580Z,5.47
2022-10-08T09:28:43.471Z,4.13
2022-10-08T09:33:54.471Z,3.08
2022-10-08T09:39:01.270Z,7.35
2022-10-08T09:44:22.401Z,2.88
2022-10-08T09:49:32.335Z,2.38
2022-10-08T09:54:43.268Z,2.58
2022-10-08T09:59:53.019Z,2.05
2022-10-08T10:04:57.982Z,4.32
2022-10-08T10:10:04.217Z,3.20
2022-10-08T10:15:16.367Z,2.23
2022-10-08T10:20:25.101Z,5.20
2022-10-08T10:25:37.847Z,3.50
2022-10-08T10:30:56.857Z,2.53
2022-10-08T10:36:04.992Z,4.25
2022-10-08T10:41:17.240Z,3.00
2022-10-08T10:46:29.715Z,3.33
2022-10-08T10:51:53.297Z,3.75
2022-10-08T10:57:03.736Z,2.65
2022-10-08T11:02:15.664Z,3.13
2022-10-08T11:07:44.708Z,2.60
2022-10-08T11:12:55.853Z,1.90
2022-10-08T11:18:21.721Z,6.80
2022-10-08T11:23:46.574Z,2.80
2022-10-08T11:29:01.631Z,3.20
2022-10-08T11:34:10.218Z,3.08
2022-10-08T11:39:20.635Z,1.27
2022-10-08T11:44:30.277Z,2.78
2022-10-08T11:49:53.163Z,2.13
2022-10-08T11:54:57.837Z,4.95
2022-10-08T12:00:08.516Z,1.90
2022-10-08T12:05:40.142Z,1.90
2022-10-08T12:10:43.926Z,0.82
2022-10-08T12:16:05.163Z,5.03
2022-10-08T12:21:54.819Z,3.55
2022-10-08T12:27:27.914Z,5.28
2022-10-08T12:32:52.322Z,3.78
2022-10-08T12:38:18.277Z,3.97
2022-10-08T12:43:31.858Z,1.90
2022-10-08T12:48:45.213Z,5.65
2022-10-08T12:53:50.225Z,3.45
2022-10-08T12:58:58.076Z,3.72
2022-10-08T13:04:22.523Z,3.70
2022-10-08T13:09:31.639Z,3.50
2022-10-08T13:14:37.772Z,6.80
2022-10-08T13:19:43.493Z,2.67
2022-10-08T13:24:48.009Z,3.80
2022-10-08T13:29:52.693Z,3.17
2022-10-08T13:34:59.936Z,2.72
2022-10-08T13:40:19.851Z,5.30
2022-10-08T13:45:25.197Z,2.00
2022-10-08T13:50:30.576Z,6.38
2022-10-08T13:55:36.718Z,3.03
2022-10-08T14:00:41.144Z,5.40
2022-10-08T14:05:49.284Z,3.25
2022-10-08T14:10:57.717Z,2.15
2022-10-08T14:16:01.669Z,3.35
2022-10-08T14:21:07.478Z,2.10
2022-10-08T14:26:12.662Z,4.03
2022-10-08T14:31:16.545Z,2.63
2022-10-08T14:36:24.924Z,5.03
2022-10-08T14:41:29.139Z,2.85
2022-10-08T14:46:32.839Z,2.08
2022-10-08T14:51:39.052Z,3.75
2022-10-08T14:56:43.267Z,2.67
2022-10-08T15:01:47.151Z,2.20
2022-10-08T15:06:52.504Z,1.98
2022-10-08T15:11:56.217Z,2.17
2022-10-08T15:16:59.951Z,2.45
2022-10-08T15:22:05.091Z,2.20
2022-10-08T15:27:08.834Z,5.20
2022-10-08T15:32:12.646Z,2.80
2022-10-08T15:37:17.771Z,3.45
2022-10-08T15:42:21.622Z,3.45
2022-10-08T15:47:25.672Z,6.22
2022-10-08T15:52:30.813Z,4.20
2022-10-08T15:57:34.622Z,4.80
2022-10-08T16:02:42.067Z,6.15
2022-10-08T16:07:47.251Z,4.95
2022-10-08T16:12:52.458Z,3.05
2022-10-08T16:17:56.285Z,2.65
2022-10-08T16:23:01.442Z,4.38
2022-10-08T16:28:05.367Z,2.45
2022-10-08T16:33:09.154Z,4.25
2022-10-08T16:38:14.930Z,5.30
2022-10-08T16:43:18.823Z,2.50
2022-10-08T16:48:22.655Z,5.70
2022-10-08T16:53:27.722Z,3.97
2022-10-08T16:58:31.893Z,1.85
2022-10-08T17:03:36.589Z,3.30
2022-10-08T17:08:42.428Z,1.88
2022-10-08T17:13:48.391Z,1.93
2022-10-08T17:18:53.233Z,2.70
2022-10-08T17:24:02.867Z,9.48
2022-10-08T17:29:08.664Z,4.90
2022-10-08T17:34:13.023Z,7.45
2022-10-08T17:39:18.285Z,12.05
2022-10-08T17:44:22.209Z,8.85
2022-10-08T17:49:28.270Z,8.20
2022-10-08T17:54:33.491Z,7.80
2022-10-08T17:59:37.318Z,5.03
2022-10-08T18:04:41.339Z,4.03
2022-10-08T18:09:46.385Z,8.35
2022-10-08T18:14:50.141Z,6.72
2022-10-08T18:19:53.972Z,7.97
2022-10-08T18:24:59.124Z,15.00
2022-10-08T18:30:02.880Z,8.02
2022-10-08T18:35:06.996Z,8.40
2022-10-08T18:40:12.454Z,6.43
2022-10-08T18:45:16.326Z,9.57
2022-10-08T18:50:20.134Z,8.38
2022-10-08T18:55:25.183Z,8.23
2022-10-08T19:00:28.982Z,8.88
2022-10-08T19:05:32.699Z,7.32
2022-10-08T19:10:37.899Z,6.93
2022-10-08T19:15:41.893Z,11.02
2022-10-08T19:20:45.659Z,12.30
2022-10-08T19:25:54.308Z,21.00
2022-10-08T19:30:58.158Z,13.50
2022-10-08T19:36:02.363Z,8.20
2022-10-08T19:41:11.766Z,6.82
2022-10-08T19:46:15.451Z,11.55
2022-10-08T19:51:19.768Z,8.68
2022-10-08T19:56:25.067Z,11.52
2022-10-08T20:01:31.540Z,9.48
2022-10-08T20:06:38.667Z,11.43
2022-10-08T20:16:48.707Z,14.70
2022-10-08T20:21:54.998Z,6.53
2022-10-08T20:27:00.233Z,10.13
2022-10-08T20:32:04.013Z,10.20
2022-10-08T20:37:07.663Z,7.60
2022-10-08T20:42:12.695Z,8.85
2022-10-08T20:47:16.428Z,9.82
2022-10-08T20:52:20.212Z,9.68
2022-10-08T20:57:25.359Z,11.18
2022-10-08T21:02:30.319Z,10.88
2022-10-08T21:07:34.101Z,9.43
2022-10-08T21:12:39.148Z,11.25
2022-10-08T21:17:42.887Z,9.63
2022-10-08T21:22:49.900Z,8.48
2022-10-08T21:27:55.280Z,7.63
2022-10-08T21:32:58.958Z,16.50
2022-10-08T21:38:02.997Z,12.88
2022-10-08T21:43:08.095Z,13.13
2022-10-08T21:48:13.773Z,15.93
2022-10-08T21:53:17.895Z,12.93
2022-10-08T21:58:23.154Z,13.98
2022-10-08T22:03:26.864Z,13.23
2022-10-08T22:08:32.493Z,10.32
2022-10-08T22:13:38.053Z,12.73
2022-10-08T22:18:42.457Z,15.98
2022-10-08T22:23:46.361Z,13.27
2022-10-08T22:28:51.953Z,12.32
2022-10-08T22:33:56.481Z,6.93
2022-10-08T22:39:01.071Z,12.85
2022-10-08T22:44:06.740Z,7.53
2022-10-08T22:49:13.002Z,19.33
2022-10-08T22:54:17.325Z,10.00
2022-10-08T22:59:22.771Z,10.35
2022-10-08T23:04:26.789Z,12.40
2022-10-08T23:09:30.599Z,8.13
2022-10-08T23:14:35.760Z,8.88
2022-10-08T23:19:39.623Z,7.43
2022-10-08T23:24:43.423Z,9.27
2022-10-08T23:29:48.865Z,10.65
2022-10-08T23:34:52.705Z,12.85
2022-10-08T23:39:58.040Z,10.38
2022-10-08T23:45:03.161Z,7.97
2022-10-08T23:50:07.781Z,8.65
2022-10-08T23:55:11.645Z,10.20
